Time;durP1;ratioP1;P1;durP2;ratioP2;P2;SDS_P1;SDS_P2;PMS_P1;PMS_P2;Temp;Humidity;BMP_temperature;BMP_pressure;BME280_temperature;BME280_humidity;BME280_pressure;Samples;Min_cycle;Max_cycle;Signal;HPM_P1;HPM_P2
2022/04/17 00:00:25;;;;;;;2.90;2.10;;;12.90;41.10;;;;;;5054462;28;20378;-64
2022/04/17 00:02:51;;;;;;;3.40;1.80;;;12.80;41.10;;;;;;5053216;28;20033;-65
2022/04/17 00:05:17;;;;;;;4.50;1.90;;;12.80;41.40;;;;;;5054067;28;20099;-66
2022/04/17 00:07:43;;;;;;;4.05;2.10;;;12.80;41.20;;;;;;5052346;28;20058;-65
2022/04/17 00:10:09;;;;;;;4.43;2.20;;;12.80;40.90;;;;;;5053603;28;20033;-65
2022/04/17 00:12:36;;;;;;;4.15;2.10;;;12.70;41.30;;;;;;5053174;28;20535;-66
2022/04/17 00:15:03;;;;;;;4.13;2.42;;;12.70;40.40;;;;;;5053007;28;20090;-67
2022/04/17 00:17:29;;;;;;;2.72;2.20;;;12.70;40.30;;;;;;5052069;28;20383;-66
2022/04/17 00:19:55;;;;;;;4.75;2.08;;;12.80;40.10;;;;;;5052640;28;20405;-65
2022/04/17 00:22:21;;;;;;;3.17;2.22;;;12.70;40.00;;;;;;5051798;28;20180;-65
2022/04/17 00:24:46;;;;;;;4.30;1.90;;;12.70;40.00;;;;;;5052577;28;20091;-66
2022/04/17 00:27:12;;;;;;;3.22;1.88;;;12.70;39.80;;;;;;5054175;28;20052;-65
2022/04/17 00:29:37;;;;;;;3.28;1.85;;;12.70;39.50;;;;;;5053721;28;20036;-66
2022/04/17 00:32:04;;;;;;;2.97;2.10;;;12.70;39.50;;;;;;5053717;28;20355;-65
2022/04/17 00:34:30;;;;;;;4.03;2.28;;;12.60;39.70;;;;;;5053820;28;20390;-65
2022/04/17 00:37:00;;;;;;;2.60;1.92;;;12.60;39.20;;;;;;5054505;28;20048;-66
2022/04/17 00:39:29;;;;;;;4.20;2.63;;;12.60;39.00;;;;;;5051971;28;20425;-65
2022/04/17 00:41:55;;;;;;;4.60;2.20;;;12.70;38.70;;;;;;5054010;28;20479;-65
2022/04/17 00:44:21;;;;;;;5.90;2.42;;;12.60;38.70;;;;;;5054088;28;20477;-66
2022/04/17 00:46:47;;;;;;;5.82;2.13;;;12.60;38.20;;;;;;5053376;28;20069;-65
2022/04/17 00:49:12;;;;;;;7.78;2.40;;;12.50;38.20;;;;;;5053949;28;20037;-65
2022/04/17 00:51:38;;;;;;;5.15;2.10;;;12.50;38.10;;;;;;5054439;28;20037;-65
2022/04/17 00:54:06;;;;;;;4.10;2.13;;;12.40;38.20;;;;;;5052776;28;20040;-66
2022/04/17 00:56:32;;;;;;;2.55;1.90;;;12.50;37.80;;;;;;5052927;28;20044;-66
2022/04/17 00:58:58;;;;;;;6.90;2.30;;;12.50;37.70;;;;;;5051017;28;20044;-66
2022/04/17 01:01:24;;;;;;;3.92;2.03;;;12.50;37.60;;;;;;5050910;28;20440;-66
2022/04/17 01:03:50;;;;;;;3.88;2.20;;;12.50;37.40;;;;;;5051169;28;20118;-65
2022/04/17 01:06:17;;;;;;;4.53;2.00;;;12.60;37.00;;;;;;5053051;28;20060;-65
2022/04/17 01:08:42;;;;;;;4.22;2.30;;;12.60;37.00;;;;;;5053564;28;20029;-66
2022/04/17 01:11:09;;;;;;;3.67;1.88;;;12.50;37.20;;;;;;5053362;28;20369;-65
2022/04/17 01:13:38;;;;;;;2.80;1.92;;;12.40;37.90;;;;;;5053523;28;20037;-65
2022/04/17 01:16:05;;;;;;;6.40;2.38;;;12.30;37.90;;;;;;5054167;28;20079;-65
2022/04/17 01:18:55;;;;;;;4.10;2.22;;;12.20;38.00;;;;;;5053413;28;20155;-68
2022/04/17 01:21:21;;;;;;;3.13;2.28;;;12.10;37.70;;;;;;5052968;28;20474;-65
2022/04/17 01:29:15;;;;;;;5.03;2.33;;;12.00;39.10;;;;;;5053132;28;20284;-65
2022/04/17 01:31:41;;;;;;;3.63;2.00;;;12.00;39.20;;;;;;5052756;28;20111;-67
2022/04/17 01:34:08;;;;;;;4.47;2.10;;;12.00;37.80;;;;;;5053139;28;20041;-66
2022/04/17 01:36:33;;;;;;;3.72;2.20;;;12.00;36.60;;;;;;5053041;28;20029;-67
2022/04/17 01:38:59;;;;;;;4.60;2.17;;;11.90;37.00;;;;;;5052839;28;20126;-65
2022/04/17 01:41:25;;;;;;;4.50;2.15;;;11.90;37.20;;;;;;5052760;28;20037;-65
2022/04/17 01:43:50;;;;;;;4.07;2.13;;;12.00;37.50;;;;;;5052778;28;20075;-65
2022/04/17 01:46:16;;;;;;;3.78;2.10;;;11.90;37.10;;;;;;5052786;28;20393;-65
2022/04/17 01:48:41;;;;;;;4.13;2.40;;;11.90;37.10;;;;;;5052644;28;20528;-65
2022/04/17 01:51:07;;;;;;;3.45;2.20;;;11.90;36.90;;;;;;5052691;28;20065;-65
2022/04/17 01:53:33;;;;;;;4.32;1.75;;;11.90;36.70;;;;;;5052784;28;20033;-66
2022/04/17 01:56:01;;;;;;;2.90;1.80;;;12.00;36.40;;;;;;5052351;28;20073;-67
2022/04/17 01:58:27;;;;;;;3.35;1.95;;;12.00;36.40;;;;;;5052619;28;20040;-65
2022/04/17 02:00:53;;;;;;;3.58;2.10;;;12.00;35.90;;;;;;5052223;28;20405;-65
2022/04/17 02:03:19;;;;;;;4.00;2.10;;;12.00;35.80;;;;;;5052258;28;20378;-66
2022/04/17 02:05:44;;;;;;;2.42;1.75;;;11.90;36.90;;;;;;5052673;28;20032;-65
2022/04/17 02:08:11;;;;;;;4.05;1.70;;;11.90;37.10;;;;;;5052093;28;20039;-65
2022/04/17 02:10:36;;;;;;;2.78;1.58;;;11.90;36.70;;;;;;5052692;28;20033;-65
2022/04/17 02:13:02;;;;;;;3.15;1.80;;;11.90;37.50;;;;;;5052437;28;20037;-65
2022/04/17 02:15:27;;;;;;;3.60;1.70;;;11.90;37.20;;;;;;5052243;28;20037;-65
2022/04/17 02:17:53;;;;;;;2.90;1.67;;;11.80;36.90;;;;;;5052727;28;20443;-65
2022/04/17 02:20:19;;;;;;;4.80;1.80;;;11.80;36.90;;;;;;5053248;28;20424;-65
2022/04/17 02:22:45;;;;;;;6.28;1.50;;;11.80;37.20;;;;;;5052510;28;20036;-67
2022/04/17 02:25:11;;;;;;;2.90;1.70;;;11.80;37.40;;;;;;5051852;28;20061;-65
2022/04/17 02:27:37;;;;;;;4.90;2.05;;;11.80;36.30;;;;;;5052151;28;20045;-65
2022/04/17 02:30:06;;;;;;;5.38;1.70;;;11.80;35.70;;;;;;5051985;28;20040;-66
2022/04/17 02:32:32;;;;;;;2.67;1.90;;;11.90;35.50;;;;;;5052548;28;20037;-65
2022/04/17 02:34:57;;;;;;;2.53;1.70;;;11.90;35.50;;;;;;5052152;28;20428;-65
2022/04/17 02:37:23;;;;;;;5.03;1.88;;;11.90;35.70;;;;;;5052010;28;20506;-65
2022/04/17 02:39:49;;;;;;;5.13;2.25;;;11.80;35.80;;;;;;5051805;28;20033;-68
2022/04/17 02:42:14;;;;;;;3.25;1.83;;;11.80;35.80;;;;;;5051886;28;20156;-66
2022/04/17 02:44:40;;;;;;;4.88;1.75;;;11.80;35.70;;;;;;5051925;28;20086;-65
2022/04/17 02:49:50;;;;;;;3.25;1.80;;;11.80;35.60;;;;;;5051532;28;20090;-65
2022/04/17 02:52:16;;;;;;;3.53;1.77;;;11.80;35.50;;;;;;5051296;28;20041;-66
2022/04/17 02:54:42;;;;;;;2.80;1.88;;;11.80;34.90;;;;;;5051499;28;20186;-66
2022/04/17 02:57:08;;;;;;;5.57;2.03;;;11.80;35.00;;;;;;5051313;28;20131;-65
2022/04/17 02:59:33;;;;;;;3.70;2.20;;;11.80;34.90;;;;;;5051317;28;20033;-66
2022/04/17 03:07:34;;;;;;;2.55;1.70;;;11.90;35.00;;;;;;5040543;28;20119;-65
2022/04/17 03:10:02;;;;;;;3.05;1.63;;;11.90;35.00;;;;;;5054254;28;20556;-65
2022/04/17 03:12:27;;;;;;;3.90;1.67;;;11.90;35.00;;;;;;5054835;28;20049;-65
2022/04/17 03:14:53;;;;;;;4.82;1.75;;;11.80;35.20;;;;;;5055312;28;20033;-66
2022/04/17 03:17:19;;;;;;;3.47;1.60;;;11.70;35.60;;;;;;5055097;28;20124;-68
2022/04/17 03:19:46;;;;;;;3.25;2.03;;;11.60;36.10;;;;;;5054811;28;20178;-66
2022/04/17 03:22:11;;;;;;;3.53;1.75;;;11.50;36.70;;;;;;5054543;28;20041;-65
2022/04/17 03:24:37;;;;;;;2.97;1.83;;;11.50;36.30;;;;;;5054979;28;20037;-67
2022/04/17 03:27:03;;;;;;;2.58;1.63;;;11.50;36.30;;;;;;5055131;28;20116;-65
2022/04/17 03:29:29;;;;;;;2.70;1.50;;;11.40;36.40;;;;;;5054870;28;20117;-65
2022/04/17 03:31:54;;;;;;;3.65;1.80;;;11.40;36.50;;;;;;5054679;28;20068;-67
2022/04/17 03:34:20;;;;;;;5.85;1.60;;;11.30;37.40;;;;;;5054478;28;20025;-67
2022/04/17 03:36:46;;;;;;;4.10;1.48;;;11.30;37.80;;;;;;5054417;28;20044;-67
2022/04/17 03:39:12;;;;;;;3.40;1.90;;;11.20;38.20;;;;;;5054557;28;20021;-65
2022/04/17 03:41:38;;;;;;;4.57;1.90;;;11.30;36.10;;;;;;5054141;28;20041;-66
2022/04/17 03:44:04;;;;;;;2.40;1.42;;;11.20;36.30;;;;;;5054143;28;20043;-65
2022/04/17 03:46:30;;;;;;;3.38;1.70;;;11.20;36.30;;;;;;5053960;28;20061;-65
2022/04/17 03:48:55;;;;;;;2.83;1.45;;;11.30;36.20;;;;;;5053095;28;20052;-66
2022/04/17 03:51:21;;;;;;;2.42;1.70;;;11.30;36.20;;;;;;5053421;28;20087;-65
2022/04/17 03:53:47;;;;;;;3.58;1.60;;;11.20;36.40;;;;;;5053630;28;20071;-66
2022/04/17 03:56:12;;;;;;;2.15;1.35;;;11.20;36.10;;;;;;5053877;28;20037;-65
2022/04/17 03:58:38;;;;;;;2.58;1.55;;;11.20;36.30;;;;;;5054130;28;20107;-66
2022/04/17 04:01:03;;;;;;;4.20;1.30;;;11.20;36.00;;;;;;5054272;28;20048;-66
2022/04/17 04:03:29;;;;;;;2.75;1.55;;;11.30;35.90;;;;;;5053841;28;20044;-66
2022/04/17 04:05:55;;;;;;;3.72;1.65;;;11.30;35.90;;;;;;5053914;28;20029;-68
2022/04/17 04:08:21;;;;;;;3.35;1.80;;;11.20;36.30;;;;;;5054933;28;20032;-65
2022/04/17 04:10:47;;;;;;;4.35;1.70;;;11.20;36.40;;;;;;5054452;28;20075;-66
2022/04/17 04:13:13;;;;;;;2.78;1.35;;;11.10;36.60;;;;;;5054019;28;20491;-66
2022/04/17 04:15:38;;;;;;;2.28;1.30;;;11.10;37.10;;;;;;5053899;28;20033;-67
2022/04/17 04:18:04;;;;;;;4.03;2.17;;;11.00;36.90;;;;;;5053919;28;20025;-65
2022/04/17 04:20:30;;;;;;;2.05;1.40;;;11.10;37.10;;;;;;5053384;28;20513;-66
2022/04/17 04:22:57;;;;;;;4.28;1.70;;;11.20;36.30;;;;;;5053794;28;20066;-66
2022/04/17 04:25:23;;;;;;;2.38;1.40;;;11.20;36.40;;;;;;5054229;28;20033;-65
2022/04/17 04:30:33;;;;;;;2.58;1.27;;;11.10;36.70;;;;;;5054231;28;20042;-65
2022/04/17 04:32:59;;;;;;;2.97;1.50;;;11.00;37.00;;;;;;5053717;28;20037;-64
2022/04/17 04:35:29;;;;;;;2.42;1.60;;;10.90;37.10;;;;;;5054273;28;20037;-66
2022/04/17 04:37:56;;;;;;;2.92;1.70;;;10.90;37.10;;;;;;5053923;28;20033;-66
2022/04/17 04:40:22;;;;;;;2.10;1.40;;;10.90;37.20;;;;;;5053480;28;20033;-66
2022/04/17 04:42:48;;;;;;;4.55;1.75;;;10.80;37.50;;;;;;5053253;28;20544;-65
2022/04/17 04:47:58;;;;;;;4.07;1.83;;;10.90;37.20;;;;;;5053637;28;20134;-70
2022/04/17 04:50:24;;;;;;;3.30;1.60;;;11.00;36.70;;;;;;5053448;28;20076;-65
2022/04/17 04:52:49;;;;;;;2.97;1.70;;;11.00;36.60;;;;;;5053292;28;20501;-66
2022/04/17 04:55:15;;;;;;;2.30;1.45;;;11.00;37.00;;;;;;5054103;28;20029;-67
2022/04/17 04:57:41;;;;;;;3.53;1.58;;;10.90;37.00;;;;;;5054056;28;20448;-66
2022/04/17 05:00:08;;;;;;;5.18;1.70;;;10.90;37.10;;;;;;5053390;28;20453;-65
2022/04/17 05:02:41;;;;;;;3.20;1.50;;;10.90;37.10;;;;;;5053286;28;20052;-65
2022/04/17 05:05:07;;;;;;;;;;;10.90;37.20;;;;;;5053878;28;20037;-65
2022/04/17 05:07:33;;;;;;;1.88;1.45;;;11.00;37.10;;;;;;5053076;28;20337;-65
2022/04/17 05:10:00;;;;;;;9.18;1.63;;;10.90;37.20;;;;;;5052874;28;20036;-69
2022/04/17 05:12:27;;;;;;;3.97;1.50;;;10.90;36.90;;;;;;5053650;28;20037;-63
2022/04/17 05:14:53;;;;;;;4.78;1.65;;;10.90;37.30;;;;;;5053381;28;20032;-67
2022/04/17 05:17:19;;;;;;;3.47;1.25;;;10.80;37.30;;;;;;5052982;28;20036;-67
2022/04/17 05:19:45;;;;;;;6.10;1.75;;;10.80;37.70;;;;;;5053013;28;20037;-66
2022/04/17 05:22:15;;;;;;;4.13;2.10;;;10.80;37.80;;;;;;5052967;28;20482;-66
2022/04/17 05:24:45;;;;;;;4.37;1.83;;;10.80;37.90;;;;;;5052906;28;20078;-67
2022/04/17 05:27:12;;;;;;;3.17;1.65;;;10.70;38.00;;;;;;5052776;28;20044;-65
2022/04/17 05:29:38;;;;;;;2.73;1.53;;;10.70;38.20;;;;;;5052583;28;20036;-65
2022/04/17 05:32:04;;;;;;;4.13;1.67;;;10.80;37.80;;;;;;5051853;28;20033;-65
2022/04/17 05:34:29;;;;;;;3.40;1.75;;;10.80;37.60;;;;;;5052671;28;20044;-65
2022/04/17 05:36:56;;;;;;;3.30;1.70;;;10.80;37.70;;;;;;5052542;28;20029;-66
2022/04/17 05:39:22;;;;;;;2.60;1.70;;;10.80;38.00;;;;;;5052697;28;20108;-65
2022/04/17 05:41:48;;;;;;;3.60;1.40;;;10.80;38.10;;;;;;5052543;28;20131;-65
2022/04/17 05:44:14;;;;;;;3.53;1.60;;;10.90;37.90;;;;;;5052951;28;20132;-65
2022/04/17 05:46:41;;;;;;;2.00;1.20;;;10.80;38.20;;;;;;5052756;28;20094;-65
2022/04/17 05:49:07;;;;;;;2.60;1.58;;;10.80;38.30;;;;;;5052424;28;20036;-65
2022/04/17 05:51:35;;;;;;;3.87;1.63;;;10.90;38.50;;;;;;5052279;28;20493;-65
2022/04/17 05:54:05;;;;;;;2.47;1.55;;;10.90;38.10;;;;;;5051299;28;20426;-65
2022/04/17 05:56:32;;;;;;;2.55;1.35;;;10.90;38.20;;;;;;5049672;28;20452;-65
2022/04/17 05:58:58;;;;;;;3.40;1.58;;;11.00;37.60;;;;;;5049203;28;20112;-65
2022/04/17 06:01:24;;;;;;;6.03;2.22;;;11.00;37.50;;;;;;5011317;28;1150401;-65
2022/04/17 06:03:50;;;;;;;3.33;1.45;;;11.10;37.50;;;;;;5052732;28;20065;-65
2022/04/17 06:06:19;;;;;;;2.85;1.63;;;11.10;37.30;;;;;;5052432;28;20446;-67
2022/04/17 06:08:46;;;;;;;5.88;1.45;;;11.10;37.60;;;;;;5052015;28;20064;-65
2022/04/17 06:11:12;;;;;;;2.67;1.60;;;11.10;37.40;;;;;;5051782;28;20106;-68
2022/04/17 06:13:37;;;;;;;2.50;1.60;;;11.10;37.20;;;;;;5052505;28;20478;-65
2022/04/17 06:16:04;;;;;;;5.28;1.85;;;11.10;37.90;;;;;;5052262;28;20056;-64
2022/04/17 06:18:29;;;;;;;2.20;1.35;;;11.10;37.30;;;;;;5052470;28;20037;-65
2022/04/17 06:20:55;;;;;;;3.95;1.80;;;11.20;37.50;;;;;;5050674;28;20098;-65
2022/04/17 06:23:21;;;;;;;2.65;1.50;;;11.30;37.40;;;;;;5048002;28;20112;-64
2022/04/17 06:25:46;;;;;;;3.13;1.50;;;11.30;37.20;;;;;;5050146;28;20044;-64
2022/04/17 06:28:12;;;;;;;3.08;1.50;;;11.40;37.40;;;;;;5051180;28;20079;-64
2022/04/17 06:30:38;;;;;;;2.67;1.27;;;11.40;36.90;;;;;;5051686;28;20086;-64
2022/04/17 06:33:03;;;;;;;2.85;1.67;;;11.40;37.00;;;;;;5051685;28;20036;-64
2022/04/17 06:35:29;;;;;;;2.55;1.45;;;11.40;37.30;;;;;;5051651;28;20025;-64
2022/04/17 06:37:59;;;;;;;3.72;1.50;;;11.40;36.80;;;;;;5051476;28;20044;-65
2022/04/17 06:40:31;;;;;;;4.65;1.60;;;11.50;36.90;;;;;;5052223;28;20393;-64
2022/04/17 06:43:05;;;;;;;2.88;1.30;;;11.50;37.30;;;;;;5052657;28;20029;-64
2022/04/17 06:45:31;;;;;;;3.00;1.50;;;11.60;37.20;;;;;;5052190;28;20033;-64
2022/04/17 06:47:57;;;;;;;4.32;1.55;;;11.60;37.30;;;;;;5052207;28;20032;-65
2022/04/17 06:50:23;;;;;;;4.45;1.50;;;11.70;36.70;;;;;;5052386;28;20417;-65
2022/04/17 06:52:49;;;;;;;3.22;1.55;;;11.70;36.70;;;;;;5052356;28;20055;-64
2022/04/17 06:55:15;;;;;;;3.85;1.60;;;11.70;37.00;;;;;;5052702;28;20044;-64
2022/04/17 06:57:46;;;;;;;3.08;1.50;;;11.80;36.90;;;;;;5052941;28;20398;-67
2022/04/17 07:00:13;;;;;;;3.10;1.63;;;11.80;37.30;;;;;;5052273;28;20049;-64
2022/04/17 07:02:40;;;;;;;4.90;1.58;;;11.80;37.20;;;;;;5051985;28;20040;-64
2022/04/17 07:05:07;;;;;;;2.83;1.33;;;11.80;36.50;;;;;;5051326;28;20060;-64
2022/04/17 07:07:33;;;;;;;3.42;1.27;;;11.90;36.60;;;;;;5051271;28;20040;-65
2022/04/17 07:09:59;;;;;;;4.03;1.92;;;11.90;37.10;;;;;;5051843;28;20025;-65
2022/04/17 07:12:24;;;;;;;4.15;1.60;;;11.90;37.00;;;;;;5051939;28;20033;-65
2022/04/17 07:14:50;;;;;;;3.42;1.65;;;12.00;37.80;;;;;;5051492;28;20511;-65
2022/04/17 07:17:16;;;;;;;2.28;1.17;;;12.00;36.90;;;;;;5052081;28;20056;-66
2022/04/17 07:19:42;;;;;;;2.28;1.30;;;12.00;37.40;;;;;;5052198;28;20040;-65
2022/04/17 07:22:08;;;;;;;3.28;1.60;;;12.10;37.40;;;;;;5052339;28;20394;-65
2022/04/17 07:24:34;;;;;;;3.10;1.55;;;12.10;37.50;;;;;;5051003;28;20037;-66
2022/04/17 07:27:01;;;;;;;2.97;1.45;;;12.20;36.80;;;;;;5052124;28;20033;-66
2022/04/17 07:29:27;;;;;;;3.90;1.13;;;12.20;36.40;;;;;;5052387;28;20028;-65
2022/04/17 07:31:53;;;;;;;2.80;1.40;;;12.30;35.90;;;;;;5052066;28;20478;-65
2022/04/17 07:34:20;;;;;;;4.97;1.73;;;12.30;35.90;;;;;;5052201;28;20029;-65
2022/04/17 07:36:54;;;;;;;1.83;1.25;;;12.40;36.60;;;;;;5051842;28;20072;-64
2022/04/17 07:39:22;;;;;;;2.50;1.42;;;12.40;36.40;;;;;;5051258;28;20489;-66
2022/04/17 07:41:48;;;;;;;3.17;1.40;;;12.60;35.70;;;;;;5049859;28;20061;-67
2022/04/17 07:44:14;;;;;;;2.92;1.40;;;12.60;35.00;;;;;;5052386;28;20025;-64
2022/04/17 07:46:42;;;;;;;3.47;1.67;;;12.60;35.50;;;;;;5052283;28;20400;-65
2022/04/17 07:49:09;;;;;;;5.07;1.17;;;12.70;35.50;;;;;;5052449;28;20083;-65
2022/04/17 07:51:35;;;;;;;5.70;1.30;;;12.70;35.00;;;;;;5052848;28;20048;-65
2022/04/17 07:54:01;;;;;;;6.93;1.50;;;12.80;35.00;;;;;;5052472;28;20076;-65
2022/04/17 07:56:27;;;;;;;4.07;1.80;;;12.90;34.70;;;;;;5055595;28;20056;-65
2022/04/17 07:58:53;;;;;;;6.22;1.15;;;13.00;34.30;;;;;;5056033;28;20469;-65
2022/04/17 08:01:18;;;;;;;4.60;1.60;;;13.00;33.60;;;;;;5055894;28;20044;-65
2022/04/17 08:06:10;;;;;;;5.35;1.52;;;13.10;34.10;;;;;;5056056;28;20037;-65
2022/04/17 08:08:42;;;;;;;3.10;1.60;;;13.20;33.20;;;;;;5055997;28;20029;-65
2022/04/17 08:11:08;;;;;;;4.07;1.50;;;13.20;32.30;;;;;;5055834;28;20477;-64
2022/04/17 08:13:35;;;;;;;2.45;1.30;;;13.20;32.60;;;;;;5055982;28;20033;-65
2022/04/17 08:16:02;;;;;;;3.67;1.20;;;13.30;33.00;;;;;;5055740;28;20473;-64
2022/04/17 08:18:28;;;;;;;2.50;1.20;;;13.30;33.60;;;;;;5055911;28;20056;-65
2022/04/17 08:20:54;;;;;;;4.72;1.98;;;13.40;34.10;;;;;;5055564;28;20485;-64
2022/04/17 08:23:19;;;;;;;2.38;1.20;;;13.40;34.80;;;;;;5055570;28;20095;-65
2022/04/17 08:25:46;;;;;;;2.40;1.20;;;13.50;33.40;;;;;;5055622;28;20037;-65
2022/04/17 08:28:12;;;;;;;4.03;1.23;;;13.50;33.10;;;;;;5053944;28;20021;-65
2022/04/17 08:30:38;;;;;;;3.55;1.73;;;13.50;33.60;;;;;;5052529;28;20511;-65
2022/04/17 08:33:05;;;;;;;3.30;1.58;;;13.60;31.50;;;;;;5053594;28;20250;-64
2022/04/17 08:35:31;;;;;;;3.60;1.55;;;13.70;32.90;;;;;;5055574;28;20386;-64
2022/04/17 08:37:59;;;;;;;2.78;1.30;;;13.70;32.90;;;;;;5055341;28;20029;-64
2022/04/17 08:40:26;;;;;;;3.42;1.38;;;13.80;33.30;;;;;;5055410;28;20120;-64
2022/04/17 08:42:53;;;;;;;3.00;1.42;;;13.80;33.20;;;;;;5055204;28;20047;-65
2022/04/17 08:45:19;;;;;;;5.63;1.70;;;13.90;33.20;;;;;;5055225;28;20025;-65
2022/04/17 08:47:45;;;;;;;2.28;1.48;;;13.90;32.90;;;;;;5055130;28;20037;-65
2022/04/17 08:50:15;;;;;;;3.60;1.30;;;14.00;33.10;;;;;;5055236;28;20037;-64
2022/04/17 08:52:45;;;;;;;5.13;1.20;;;14.10;31.40;;;;;;5054098;28;20029;-65
2022/04/17 08:55:11;;;;;;;3.58;1.30;;;14.10;30.80;;;;;;5052153;28;20120;-65
2022/04/17 08:57:37;;;;;;;4.20;1.17;;;14.10;32.20;;;;;;5052223;28;20047;-65
2022/04/17 09:00:04;;;;;;;3.13;1.30;;;14.20;32.30;;;;;;5053339;28;20132;-64
2022/04/17 09:02:30;;;;;;;2.55;1.30;;;14.30;32.10;;;;;;5054661;28;20130;-65
2022/04/17 09:04:56;;;;;;;5.40;1.42;;;14.30;32.50;;;;;;5054748;28;20124;-64
2022/04/17 09:07:22;;;;;;;2.50;1.42;;;14.40;32.90;;;;;;5053466;28;20071;-65
2022/04/17 09:09:53;;;;;;;3.83;1.35;;;14.40;33.00;;;;;;5054535;28;20427;-65
2022/04/17 09:12:24;;;;;;;2.90;1.30;;;14.50;33.20;;;;;;5054469;28;20492;-65
2022/04/17 09:14:50;;;;;;;4.18;1.45;;;14.60;33.00;;;;;;5054593;28;20116;-65
2022/04/17 09:17:17;;;;;;;2.13;1.25;;;14.70;31.00;;;;;;5054523;28;20037;-66
2022/04/17 09:19:43;;;;;;;4.13;1.27;;;14.70;31.50;;;;;;5054563;28;20068;-65
2022/04/17 09:22:12;;;;;;;2.58;1.30;;;14.80;32.00;;;;;;5054379;28;20088;-65
2022/04/17 09:24:40;;;;;;;5.60;1.42;;;14.90;31.40;;;;;;5053999;28;20401;-64
2022/04/17 09:27:08;;;;;;;1.85;1.13;;;14.90;32.00;;;;;;5054272;28;20057;-64
2022/04/17 09:29:38;;;;;;;3.03;1.25;;;15.00;31.70;;;;;;5054012;28;20485;-64
2022/04/17 09:32:06;;;;;;;5.93;1.30;;;15.00;30.40;;;;;;5053978;28;20037;-65
2022/04/17 09:34:52;;;;;;;5.28;1.40;;;15.00;31.30;;;;;;5054003;28;20456;-65
2022/04/17 09:37:19;;;;;;;2.13;1.20;;;15.10;31.20;;;;;;5054214;28;20037;-65
2022/04/17 09:39:46;;;;;;;3.45;1.38;;;15.20;31.50;;;;;;5054222;28;20064;-65
2022/04/17 09:42:12;;;;;;;2.03;1.10;;;15.20;31.50;;;;;;5054039;28;20041;-65
2022/04/17 09:44:46;;;;;;;2.97;1.42;;;15.30;30.80;;;;;;5054153;28;20518;-64
2022/04/17 09:47:23;;;;;;;5.30;1.52;;;15.30;31.70;;;;;;5053924;28;20033;-65
2022/04/17 09:49:52;;;;;;;5.15;1.30;;;15.30;31.90;;;;;;5053915;28;20029;-65
2022/04/17 09:52:19;;;;;;;6.07;1.67;;;15.40;31.90;;;;;;5053862;28;20394;-65
2022/04/17 09:54:45;;;;;;;6.22;1.50;;;15.50;31.80;;;;;;5053930;28;20530;-64
2022/04/17 09:57:16;;;;;;;9.27;1.58;;;15.50;32.30;;;;;;5053934;28;20033;-65
2022/04/17 09:59:43;;;;;;;5.27;1.60;;;15.50;32.40;;;;;;5053708;28;20045;-65
2022/04/17 10:02:12;;;;;;;5.72;1.48;;;15.50;32.90;;;;;;5053420;28;20644;-65
2022/04/17 10:04:39;;;;;;;4.22;1.27;;;15.60;33.70;;;;;;5053766;28;20409;-65
2022/04/17 10:07:06;;;;;;;12.13;4.95;;;15.60;33.70;;;;;;5054016;28;20040;-65
2022/04/17 10:09:32;;;;;;;10.13;1.60;;;15.70;32.90;;;;;;5053967;28;20119;-65
2022/04/17 10:11:59;;;;;;;3.95;1.67;;;15.80;31.00;;;;;;5053667;28;20033;-64
2022/04/17 10:14:28;;;;;;;3.55;1.20;;;15.80;31.80;;;;;;5053506;28;20393;-65
2022/04/17 10:16:55;;;;;;;2.70;1.40;;;15.90;31.20;;;;;;5053552;28;20037;-64
2022/04/17 10:19:21;;;;;;;4.22;1.10;;;16.00;30.10;;;;;;5053203;28;20033;-65
2022/04/17 10:21:47;;;;;;;8.52;1.85;;;16.00;30.70;;;;;;5053538;28;20045;-65
2022/04/17 10:24:18;;;;;;;2.45;1.58;;;16.10;30.00;;;;;;5053398;28;20417;-65
2022/04/17 10:26:51;;;;;;;6.00;1.75;;;16.10;31.30;;;;;;5053080;28;20052;-65
2022/04/17 10:29:31;;;;;;;2.85;1.50;;;16.20;31.80;;;;;;5053281;28;20037;-65
2022/04/17 10:32:21;;;;;;;1.88;1.05;;;16.30;30.40;;;;;;5053454;28;20041;-65
2022/04/17 10:35:17;;;;;;;6.15;1.10;;;16.30;30.50;;;;;;5053531;28;20147;-65
2022/04/17 10:37:43;;;;;;;4.05;1.80;;;16.40;30.20;;;;;;5053199;28;20068;-65
2022/04/17 10:40:10;;;;;;;47.65;3.22;;;16.50;30.00;;;;;;5053025;28;20071;-65
2022/04/17 10:42:52;;;;;;;10.52;1.40;;;16.60;29.60;;;;;;5053103;28;20048;-65
2022/04/17 10:45:18;;;;;;;2.58;1.30;;;16.60;30.10;;;;;;5053298;28;20116;-65
2022/04/17 10:48:12;;;;;;;6.85;1.17;;;16.70;30.50;;;;;;5053158;28;20507;-65
2022/04/17 10:50:42;;;;;;;9.48;1.80;;;16.80;29.50;;;;;;5053125;28;20102;-65
2022/04/17 10:53:30;;;;;;;3.58;1.48;;;16.90;29.90;;;;;;5053013;28;20037;-65
2022/04/17 10:56:10;;;;;;;4.85;1.02;;;17.00;30.30;;;;;;5053338;28;20387;-65
2022/04/17 10:58:44;;;;;;;3.28;1.33;;;17.00;30.40;;;;;;5050960;28;20088;-65
2022/04/17 11:01:11;;;;;;;3.05;1.00;;;17.10;30.00;;;;;;5049794;28;20135;-66
2022/04/17 11:03:36;;;;;;;4.45;1.30;;;17.20;29.70;;;;;;5051151;28;20454;-65
2022/04/17 11:06:31;;;;;;;1.92;1.17;;;17.20;30.00;;;;;;5052787;28;20060;-64
2022/04/17 11:09:20;;;;;;;2.30;1.30;;;17.30;29.30;;;;;;5052892;28;20033;-65
2022/04/17 11:11:46;;;;;;;2.15;1.20;;;17.40;29.40;;;;;;5052768;28;20049;-65
2022/04/17 11:14:13;;;;;;;5.28;1.08;;;17.50;29.40;;;;;;5052580;28;20428;-65
2022/04/17 11:16:58;;;;;;;6.43;1.58;;;17.60;29.80;;;;;;5052865;28;20041;-69
2022/04/17 11:19:26;;;;;;;2.38;1.10;;;17.60;29.90;;;;;;5052798;28;20032;-64
2022/04/17 11:21:53;;;;;;;2.92;1.20;;;17.70;29.20;;;;;;5052709;28;20051;-64
2022/04/17 11:24:21;;;;;;;4.38;1.27;;;17.80;29.50;;;;;;5049868;28;20048;-65
2022/04/17 11:26:52;;;;;;;3.58;1.15;;;17.80;29.30;;;;;;5049541;28;20043;-65
2022/04/17 11:29:48;;;;;;;2.65;1.27;;;17.90;29.70;;;;;;5050692;28;20049;-65
2022/04/17 11:32:16;;;;;;;4.32;1.13;;;17.90;29.00;;;;;;5056351;28;20114;-65
2022/04/17 11:34:55;;;;;;;4.38;1.30;;;18.00;28.70;;;;;;5056531;28;20143;-65
2022/04/17 11:37:22;;;;;;;6.05;1.50;;;18.10;29.30;;;;;;5056452;28;20029;-65
2022/04/17 11:39:50;;;;;;;2.28;1.10;;;18.10;28.90;;;;;;5056081;28;20108;-65
2022/04/17 11:42:16;;;;;;;5.85;1.50;;;18.20;29.80;;;;;;5056379;28;20049;-64
2022/04/17 11:44:47;;;;;;;10.63;1.42;;;18.30;29.30;;;;;;5056348;28;20589;-68
2022/04/17 11:47:22;;;;;;;6.93;1.45;;;18.40;28.70;;;;;;5055865;28;20493;-64
2022/04/17 11:49:48;;;;;;;3.72;1.50;;;18.40;27.20;;;;;;5056112;28;20033;-65
2022/04/17 11:52:19;;;;;;;2.75;1.40;;;18.40;27.90;;;;;;5056186;28;20041;-64
2022/04/17 11:54:46;;;;;;;7.40;1.60;;;18.40;27.70;;;;;;5055893;28;20079;-64
2022/04/17 11:57:13;;;;;;;6.30;1.52;;;18.50;27.50;;;;;;5055944;28;20033;-65
2022/04/17 11:59:52;;;;;;;3.05;1.35;;;18.50;27.70;;;;;;5055563;28;20410;-64
2022/04/17 12:02:25;;;;;;;2.17;1.20;;;18.60;27.80;;;;;;5055696;28;20040;-64
2022/04/17 12:04:55;;;;;;;3.10;1.25;;;18.70;28.00;;;;;;5055723;28;20116;-64
2022/04/17 12:07:24;;;;;;;4.07;1.42;;;18.70;27.80;;;;;;5055884;28;20037;-64
2022/04/17 12:10:01;;;;;;;4.95;1.40;;;18.80;28.20;;;;;;5056075;28;20451;-64
2022/04/17 12:12:33;;;;;;;4.47;1.35;;;18.90;27.90;;;;;;5054424;28;20397;-64
2022/04/17 12:15:00;;;;;;;5.10;1.30;;;19.00;28.80;;;;;;5055968;28;20037;-64
2022/04/17 12:17:26;;;;;;;4.57;1.50;;;19.10;27.90;;;;;;5055608;28;20488;-64
2022/04/17 12:19:51;;;;;;;3.28;1.23;;;19.10;27.80;;;;;;5055682;28;20108;-65
2022/04/17 12:22:18;;;;;;;10.55;1.50;;;19.20;27.60;;;;;;5055760;28;20051;-65
2022/04/17 12:24:45;;;;;;;5.00;1.40;;;19.20;27.40;;;;;;5055611;28;20086;-64
2022/04/17 12:27:13;;;;;;;2.75;1.25;;;19.20;27.20;;;;;;5055799;28;20041;-64
2022/04/17 12:29:41;;;;;;;3.28;1.20;;;19.30;27.30;;;;;;5055551;28;20124;-68
2022/04/17 12:32:16;;;;;;;3.17;1.35;;;19.30;27.50;;;;;;5055422;28;20447;-65
2022/04/17 12:34:46;;;;;;;8.43;1.33;;;19.40;27.30;;;;;;5055344;28;20486;-65
2022/04/17 12:37:38;;;;;;;3.67;1.20;;;19.50;27.20;;;;;;5055234;28;20041;-69
2022/04/17 12:40:21;;;;;;;5.38;1.30;;;19.60;26.70;;;;;;5053341;28;20420;-64
2022/04/17 12:42:48;;;;;;;4.30;1.20;;;19.60;27.30;;;;;;5055350;28;20124;-64
2022/04/17 12:45:26;;;;;;;1.92;1.23;;;19.60;27.20;;;;;;5055182;28;20359;-64
2022/04/17 12:48:05;;;;;;;2.35;1.20;;;19.70;27.20;;;;;;5055191;28;20493;-65
2022/04/17 12:50:31;;;;;;;4.28;1.30;;;19.70;27.00;;;;;;5055139;28;20036;-64
2022/04/17 12:52:57;;;;;;;4.80;1.30;;;19.80;26.80;;;;;;5054737;28;20087;-65
2022/04/17 12:55:34;;;;;;;3.60;1.20;;;19.80;27.30;;;;;;5055530;28;20182;-65
2022/04/17 12:58:01;;;;;;;5.15;1.30;;;19.90;27.20;;;;;;5054918;28;20045;-65
2022/04/17 13:00:28;;;;;;;4.47;1.25;;;20.00;26.80;;;;;;5054976;28;20055;-64
2022/04/17 13:03:11;;;;;;;3.58;1.40;;;20.00;26.70;;;;;;5054997;28;20055;-65
2022/04/17 13:05:38;;;;;;;6.13;1.20;;;20.10;26.50;;;;;;5054878;28;20390;-64
2022/04/17 13:08:08;;;;;;;5.35;0.93;;;20.20;27.00;;;;;;5053757;28;20063;-65
2022/04/17 13:10:34;;;;;;;10.55;1.30;;;20.20;26.90;;;;;;5051925;28;20086;-65
2022/04/17 13:13:00;;;;;;;3.00;1.17;;;20.30;27.00;;;;;;5052384;28;20104;-64